Airfield :
LOGIN :

Register | Disclaimer

   EN    FR    IT 

 










Legend :    VFR   Marginal VFR   IFR   Intensive IFR   Very Intensive IFR
Visi :
Ceiling :
>= 8 km
>= 3000ft
5 to 8 km
1000 to 3000 ft
1500m to 5 km
500 to 1000 ft
800 to 1500m
200 to 500 ft
< 800m
< 200 ft
Symbols :   Thunderstorms  Fog  Heavy snow  Heavy precipitations  Wind > 20 kt
SIGMETs :     Misc.  Thunderstorms  Icing  Turbulence  Mountain Waves  Volcanic Ashes







- Airport Elevation : 978 ft
- IATA code : LNZ


LOWL - Linz

CURRENT METAR :
  • 180050Z AUTO 25008KT 5000 -SHSN FEW007 SCT010 BKN018 M00/M01 Q1024

EXPIRED METARs :
  • 180020Z AUTO 26011KT 3900 -SHSN FEW010 BKN016 00/M01 Q1024
  • 172350Z AUTO 26015KT 9000 -SN FEW008 SCT013 BKN022 00/M01 Q1024
  • 172320Z AUTO 26017KT 8000 -SN FEW009 SCT013 BKN036 00/M01 Q1024
  • 172250Z AUTO 26012KT 9999 -SN FEW012 BKN018 00/M02 Q1024
  • 172220Z AUTO 25013KT 9999 -SHSN FEW013 BKN024 00/M01 Q1024 R08/29//95 TEMPO 2000 SHSN BKN012
  • 172150Z AUTO 27014KT 7000 -SHSN FEW012 SCT018 BKN048 01/M02 Q1024 R08/29//95 TEMPO 4000

TAF TAF LOWL
Valid from the 18 at 00:00 until the 19 at 00:00 UTC


172315Z 1800/1824 28010KT 8000 BKN030 TX02/1812Z TNM04/1900Z
TEMPO 1800/1807 4000 -SHSN BKN015
BECMG 1807/1810 23004KT FEW025 SCT060
No reported NOTAMs for that airfield.



MET'MAP, your aeronautical weather chart ! - Copyright ORBIFLY December 2007 - Disclaimer

ORBIFLY MET'MAP TEAM :

Programming & Development : Alexandra Zaïnal
Concept & Development : Baudouin d'Aumeries
Co-Development & Prog : Marc-Olivier Méhu
Technical & hardware support : Manuel Goepfert

Contact : metmap@orbifly.com




SOURCES & CREDITS :

   NOAA